createdAt,value
2023-05-18T00:01:31.019Z,0.30
2023-05-18T00:03:58.294Z,0.98
2023-05-18T00:06:26.048Z,0.20
2023-05-18T00:08:53.322Z,0.43
2023-05-18T00:11:21.907Z,0.55
2023-05-18T00:13:49.423Z,0.30
2023-05-18T00:16:16.665Z,0.40
2023-05-18T00:18:45.404Z,1.08
2023-05-18T00:21:16.341Z,0.40
2023-05-18T00:23:49.672Z,0.43
2023-05-18T00:26:17.088Z,0.55
2023-05-18T00:28:44.590Z,0.55
2023-05-18T00:31:13.038Z,0.35
2023-05-18T00:33:41.335Z,0.60
2023-05-18T00:36:09.008Z,0.40
2023-05-18T00:38:36.486Z,0.52
2023-05-18T00:41:03.981Z,0.60
2023-05-18T00:43:31.212Z,0.50
2023-05-18T00:45:58.787Z,0.80
2023-05-18T00:48:26.201Z,0.60
2023-05-18T00:50:54.149Z,0.60
2023-05-18T00:53:21.741Z,1.08
2023-05-18T00:55:49.336Z,0.90
2023-05-18T00:58:17.699Z,5.90
2023-05-18T01:00:45.425Z,0.65
2023-05-18T01:03:15.577Z,0.98
2023-05-18T01:05:42.990Z,1.17
2023-05-18T01:08:10.202Z,0.60
2023-05-18T01:10:41.244Z,0.50
2023-05-18T01:13:15.802Z,0.50
2023-05-18T01:15:47.707Z,1.33
2023-05-18T01:18:34.446Z,0.65
2023-05-18T01:21:33.967Z,1.65
2023-05-18T01:24:19.375Z,1.55
2023-05-18T01:26:50.622Z,0.80
2023-05-18T01:29:19.318Z,0.73
2023-05-18T01:31:46.557Z,1.23
2023-05-18T01:34:13.920Z,1.90
2023-05-18T01:36:41.173Z,1.88
2023-05-18T01:39:09.659Z,1.15
2023-05-18T01:41:46.681Z,0.82
2023-05-18T01:44:46.738Z,0.98
2023-05-18T01:47:16.848Z,1.08
2023-05-18T01:50:06.444Z,1.77
2023-05-18T01:52:40.043Z,1.17
2023-05-18T01:55:10.160Z,1.63
2023-05-18T01:57:41.747Z,2.38
2023-05-18T02:00:10.448Z,2.42
2023-05-18T02:02:45.933Z,2.20
2023-05-18T02:05:16.317Z,1.60
2023-05-18T02:07:47.678Z,2.20
2023-05-18T02:10:15.618Z,1.05
2023-05-18T02:12:42.949Z,2.50
2023-05-18T02:15:10.704Z,2.53
2023-05-18T02:17:38.490Z,1.33
2023-05-18T02:20:38.385Z,2.10
2023-05-18T02:23:05.533Z,4.25
2023-05-18T02:25:33.291Z,2.20
2023-05-18T02:28:00.889Z,1.88
2023-05-18T02:30:29.397Z,1.80
2023-05-18T02:32:57.414Z,1.10
2023-05-18T02:35:26.787Z,2.88
2023-05-18T02:37:54.022Z,3.95
2023-05-18T02:40:23.645Z,3.70
2023-05-18T02:42:50.922Z,3.03
2023-05-18T02:45:18.626Z,2.30
2023-05-18T02:47:45.928Z,2.65
2023-05-18T02:50:13.663Z,2.05
2023-05-18T02:52:42.503Z,2.08
2023-05-18T02:55:10.429Z,2.03
2023-05-18T02:58:03.883Z,3.38
2023-05-18T03:01:00.427Z,2.35
2023-05-18T03:03:34.563Z,2.92
2023-05-18T03:06:05.656Z,4.75
2023-05-18T03:08:32.969Z,3.75
2023-05-18T03:11:00.180Z,2.50
2023-05-18T03:13:27.645Z,2.28
2023-05-18T03:15:56.749Z,5.05
2023-05-18T03:18:25.565Z,2.47
2023-05-18T03:20:54.561Z,3.15
2023-05-18T03:23:21.997Z,2.83
2023-05-18T03:25:53.817Z,3.67
2023-05-18T03:28:22.920Z,3.75
2023-05-18T03:30:50.393Z,3.28
2023-05-18T03:33:17.699Z,3.10
2023-05-18T03:35:47.819Z,3.60
2023-05-18T03:38:16.038Z,2.13
2023-05-18T03:40:47.886Z,1.83
2023-05-18T03:43:15.297Z,4.10
2023-05-18T03:45:43.817Z,4.18
2023-05-18T03:48:11.304Z,3.60
2023-05-18T03:50:39.393Z,2.70
2023-05-18T03:53:08.079Z,2.42
2023-05-18T03:55:35.905Z,2.47
2023-05-18T03:58:03.468Z,3.75
2023-05-18T04:00:32.459Z,2.33
2023-05-18T04:03:00.778Z,1.95
2023-05-18T04:05:28.608Z,1.88
2023-05-18T04:07:57.629Z,4.20
2023-05-18T04:10:25.277Z,3.45
2023-05-18T04:12:52.472Z,4.13
2023-05-18T04:15:19.840Z,3.53
2023-05-18T04:17:47.175Z,2.42
2023-05-18T04:20:14.911Z,4.13
2023-05-18T04:22:49.072Z,2.78
2023-05-18T04:25:18.072Z,2.17
2023-05-18T04:27:45.822Z,4.90
2023-05-18T04:30:14.504Z,2.95
2023-05-18T04:32:43.653Z,2.80
2023-05-18T04:35:12.137Z,2.15
2023-05-18T04:37:41.076Z,1.63
2023-05-18T04:40:17.479Z,2.30
2023-05-18T04:42:48.288Z,2.67
2023-05-18T04:45:28.133Z,1.30
2023-05-18T04:48:02.405Z,2.00
2023-05-18T04:50:31.843Z,1.60
2023-05-18T04:53:12.404Z,1.45
2023-05-18T04:56:10.105Z,1.23
2023-05-18T04:58:57.007Z,2.63
2023-05-18T05:01:37.527Z,2.63
2023-05-18T05:04:19.349Z,1.20
2023-05-18T05:07:01.051Z,0.93
2023-05-18T05:09:30.720Z,1.38
2023-05-18T05:11:58.446Z,2.17
2023-05-18T05:14:25.680Z,1.70
2023-05-18T05:16:53.152Z,1.50
2023-05-18T05:19:20.428Z,3.08
2023-05-18T05:21:48.477Z,1.83
2023-05-18T05:24:15.869Z,1.08
2023-05-18T05:26:43.632Z,2.80
2023-05-18T05:29:10.997Z,2.33
2023-05-18T05:31:38.598Z,2.08
2023-05-18T05:34:06.401Z,1.75
2023-05-18T05:36:33.957Z,2.10
2023-05-18T05:39:01.542Z,1.45
2023-05-18T05:41:31.763Z,1.33
2023-05-18T05:43:59.786Z,1.27
2023-05-18T05:46:27.156Z,1.25
2023-05-18T05:48:56.079Z,1.15
2023-05-18T05:51:23.297Z,2.78
2023-05-18T05:53:50.566Z,2.15
2023-05-18T05:56:18.124Z,1.73
2023-05-18T05:58:46.736Z,0.70
2023-05-18T06:01:14.327Z,2.42
2023-05-18T06:03:41.670Z,2.55
2023-05-18T06:06:09.936Z,1.80
2023-05-18T06:08:37.375Z,1.48
2023-05-18T06:11:04.592Z,1.42
2023-05-18T06:13:32.324Z,1.58
2023-05-18T06:15:59.635Z,1.23
2023-05-18T06:18:28.075Z,1.42
2023-05-18T06:21:00.214Z,1.67
2023-05-18T06:23:28.032Z,0.73
2023-05-18T06:26:04.257Z,3.00
2023-05-18T06:28:31.654Z,0.60
2023-05-18T06:31:13.050Z,1.60
2023-05-18T06:33:46.987Z,0.90
2023-05-18T06:36:16.013Z,0.60
2023-05-18T06:38:43.347Z,0.75
2023-05-18T06:41:10.851Z,1.20
2023-05-18T06:43:37.976Z,0.57
2023-05-18T06:46:26.718Z,2.47
2023-05-18T06:49:08.169Z,2.95
2023-05-18T06:51:35.399Z,0.90
2023-05-18T06:54:02.648Z,0.68
2023-05-18T06:56:30.135Z,0.85
2023-05-18T06:58:59.650Z,0.57
2023-05-18T07:01:27.593Z,1.75
2023-05-18T07:03:58.317Z,2.90
2023-05-18T07:06:25.851Z,2.08
2023-05-18T07:08:53.149Z,0.88
2023-05-18T07:11:21.131Z,1.00
2023-05-18T07:13:48.311Z,3.67
2023-05-18T07:16:15.667Z,0.73
2023-05-18T07:18:42.946Z,1.27
2023-05-18T07:21:10.483Z,1.63
2023-05-18T07:23:37.789Z,0.77
2023-05-18T07:26:05.165Z,0.50
2023-05-18T07:28:32.445Z,0.60
2023-05-18T07:30:59.876Z,0.90
2023-05-18T07:33:28.908Z,1.48
2023-05-18T07:35:56.097Z,0.73
2023-05-18T07:38:23.276Z,0.75
2023-05-18T07:40:50.431Z,0.50
2023-05-18T07:43:17.847Z,0.47
2023-05-18T07:45:45.287Z,0.63
2023-05-18T07:48:12.722Z,2.17
2023-05-18T07:50:40.320Z,1.10
2023-05-18T07:53:07.857Z,0.93
2023-05-18T07:55:35.082Z,1.35
2023-05-18T07:58:02.287Z,0.47
2023-05-18T08:00:29.664Z,0.80
2023-05-18T08:02:56.955Z,0.68
2023-05-18T08:05:24.457Z,1.40
2023-05-18T08:07:52.076Z,1.38
2023-05-18T08:10:19.545Z,0.45
2023-05-18T08:12:46.764Z,0.80
2023-05-18T08:15:14.069Z,0.60
2023-05-18T08:17:41.595Z,1.65
2023-05-18T08:20:10.724Z,0.40
2023-05-18T08:22:37.966Z,1.30
2023-05-18T08:25:05.545Z,0.80
2023-05-18T08:27:32.868Z,0.55
2023-05-18T08:30:00.094Z,0.50
2023-05-18T08:32:28.076Z,0.52
2023-05-18T08:34:55.374Z,0.40
2023-05-18T08:37:22.655Z,0.63
2023-05-18T08:39:49.843Z,1.13
2023-05-18T08:42:27.562Z,0.47
2023-05-18T08:45:18.422Z,0.65
2023-05-18T08:47:46.445Z,0.70
2023-05-18T08:50:16.280Z,0.60
2023-05-18T08:52:48.554Z,0.40
2023-05-18T08:55:17.955Z,0.50
2023-05-18T08:57:50.210Z,0.52
2023-05-18T09:00:18.345Z,1.05
2023-05-18T09:02:47.798Z,0.55
2023-05-18T09:05:17.077Z,0.70
2023-05-18T09:07:51.420Z,2.17
2023-05-18T09:10:19.155Z,0.82
2023-05-18T09:13:12.988Z,0.57
2023-05-18T09:15:40.355Z,0.90
2023-05-18T09:18:07.618Z,0.50
2023-05-18T09:20:34.922Z,0.82
2023-05-18T09:23:02.738Z,0.45
2023-05-18T09:25:35.258Z,0.93
2023-05-18T09:28:04.783Z,0.50
2023-05-18T09:30:41.388Z,0.80
2023-05-18T09:33:18.008Z,0.50
2023-05-18T09:35:47.189Z,0.40
2023-05-18T09:38:23.828Z,0.73
2023-05-18T09:40:51.296Z,0.82
2023-05-18T09:43:19.228Z,0.70
2023-05-18T09:45:48.954Z,0.40
2023-05-18T09:48:17.544Z,1.40
2023-05-18T09:50:45.709Z,0.70
2023-05-18T09:53:14.499Z,0.40
2023-05-18T09:55:49.788Z,2.67
2023-05-18T09:58:17.680Z,0.30
2023-05-18T10:00:52.050Z,0.50
2023-05-18T10:03:24.535Z,0.60
2023-05-18T10:05:52.253Z,0.40
2023-05-18T10:08:19.498Z,0.82
2023-05-18T10:10:49.408Z,0.82
2023-05-18T10:13:20.131Z,0.70
2023-05-18T10:15:49.710Z,0.82
2023-05-18T10:18:38.251Z,0.50
2023-05-18T10:21:09.840Z,0.50
2023-05-18T10:23:37.669Z,1.50
2023-05-18T10:26:07.598Z,0.30
2023-05-18T10:28:55.880Z,0.95
2023-05-18T10:31:24.724Z,0.40
2023-05-18T10:33:53.430Z,0.50
2023-05-18T10:36:25.427Z,0.75
2023-05-18T10:38:53.978Z,0.52
2023-05-18T10:41:23.035Z,0.80
2023-05-18T10:43:50.965Z,0.50
2023-05-18T10:46:18.830Z,0.50
2023-05-18T10:48:48.530Z,1.73
2023-05-18T10:51:16.411Z,0.57
2023-05-18T10:53:47.811Z,0.77
2023-05-18T10:56:18.529Z,0.52
2023-05-18T10:58:46.817Z,1.57
2023-05-18T11:01:14.493Z,0.40
2023-05-18T11:03:42.221Z,0.60
2023-05-18T11:06:15.174Z,0.65
2023-05-18T11:08:52.073Z,0.55
2023-05-18T11:11:30.176Z,0.88
2023-05-18T11:14:04.054Z,0.50
2023-05-18T11:16:36.277Z,0.82
2023-05-18T11:19:09.439Z,0.75
2023-05-18T11:21:36.697Z,0.63
2023-05-18T11:24:24.921Z,1.83
2023-05-18T11:27:12.436Z,0.60
2023-05-18T11:29:48.024Z,1.50
2023-05-18T11:32:31.319Z,0.52
2023-05-18T11:34:59.660Z,0.55
2023-05-18T11:37:39.355Z,1.98
2023-05-18T11:40:11.527Z,0.52
2023-05-18T11:42:39.709Z,1.05
2023-05-18T11:45:13.770Z,1.23
2023-05-18T11:47:41.655Z,1.08
2023-05-18T11:50:12.244Z,0.52
2023-05-18T11:52:52.545Z,0.80
2023-05-18T11:55:21.362Z,1.77
2023-05-18T11:57:52.781Z,3.50
2023-05-18T12:02:49.242Z,0.80
2023-05-18T12:05:17.367Z,0.90
2023-05-18T12:07:45.636Z,0.75
2023-05-18T12:10:17.251Z,2.13
2023-05-18T12:15:16.945Z,0.85
2023-05-18T12:17:47.315Z,1.42
2023-05-18T12:20:20.851Z,0.90
2023-05-18T12:22:53.192Z,1.05
2023-05-18T12:25:23.464Z,1.00
2023-05-18T12:27:52.175Z,0.90
2023-05-18T12:30:38.626Z,0.90
2023-05-18T12:33:07.217Z,0.68
2023-05-18T12:35:35.447Z,1.30
2023-05-18T12:38:03.289Z,1.13
2023-05-18T12:40:44.762Z,1.85
2023-05-18T12:43:13.251Z,0.80
2023-05-18T12:45:41.282Z,3.13
2023-05-18T12:48:10.911Z,1.98
2023-05-18T12:50:47.544Z,1.05
2023-05-18T12:53:15.170Z,3.38
2023-05-18T12:55:45.460Z,1.23
2023-05-18T12:58:18.854Z,3.92
2023-05-18T13:00:48.684Z,2.20
2023-05-18T13:03:22.254Z,5.28
2023-05-18T13:06:04.618Z,4.65
2023-05-18T13:11:13.542Z,4.10
2023-05-18T13:14:00.703Z,2.85
2023-05-18T13:16:30.530Z,3.55
2023-05-18T13:18:59.573Z,3.17
2023-05-18T13:21:27.256Z,4.90
2023-05-18T13:23:54.710Z,2.65
2023-05-18T13:26:23.103Z,3.38
2023-05-18T13:28:53.212Z,5.43
2023-05-18T13:31:21.116Z,4.43
2023-05-18T13:33:50.271Z,3.65
2023-05-18T13:36:18.148Z,4.70
2023-05-18T13:38:45.795Z,4.43
2023-05-18T13:41:15.358Z,5.63
2023-05-18T13:43:43.939Z,4.07
2023-05-18T13:46:11.276Z,2.90
2023-05-18T13:48:38.745Z,4.43
2023-05-18T13:51:06.114Z,5.13
2023-05-18T13:53:33.641Z,3.97
2023-05-18T13:56:02.365Z,2.88
2023-05-18T13:58:29.567Z,5.40
2023-05-18T14:00:56.840Z,3.65
2023-05-18T14:03:24.709Z,4.53
2023-05-18T14:05:52.355Z,3.50
2023-05-18T14:08:19.649Z,3.13
2023-05-18T14:10:46.938Z,4.72
2023-05-18T14:13:14.240Z,4.32
2023-05-18T14:15:41.428Z,3.20
2023-05-18T14:18:08.839Z,3.65
2023-05-18T14:20:38.006Z,4.38
2023-05-18T14:23:06.048Z,7.35
2023-05-18T14:25:34.856Z,4.85
2023-05-18T14:28:02.067Z,5.68
2023-05-18T14:30:29.460Z,11.25
2023-05-18T14:32:56.890Z,5.95
2023-05-18T14:35:24.269Z,3.67
2023-05-18T14:37:51.558Z,3.78
2023-05-18T14:40:18.892Z,7.03
2023-05-18T14:42:46.177Z,5.03
2023-05-18T14:45:13.542Z,4.03
2023-05-18T14:47:40.802Z,3.30
2023-05-18T14:50:08.683Z,3.95
2023-05-18T14:52:35.964Z,2.70
2023-05-18T14:55:03.635Z,3.80
2023-05-18T14:57:30.879Z,4.13
2023-05-18T14:59:58.682Z,5.40
2023-05-18T15:02:25.999Z,4.63
2023-05-18T15:04:53.489Z,4.00
2023-05-18T15:07:21.130Z,5.10
2023-05-18T15:09:48.475Z,3.30
2023-05-18T15:12:17.201Z,4.97
2023-05-18T15:14:44.493Z,5.13
2023-05-18T15:17:15.196Z,3.08
2023-05-18T15:19:42.470Z,6.37
2023-05-18T15:22:10.034Z,3.83
2023-05-18T15:24:37.295Z,3.05
2023-05-18T15:27:05.021Z,6.60
2023-05-18T15:29:32.293Z,5.25
2023-05-18T15:31:59.846Z,3.13
2023-05-18T15:34:27.167Z,4.03
2023-05-18T15:36:54.636Z,4.30
2023-05-18T15:39:22.270Z,4.40
2023-05-18T15:41:50.929Z,5.30
2023-05-18T15:44:18.292Z,4.15
2023-05-18T15:46:45.703Z,4.32
2023-05-18T15:49:13.082Z,3.55
2023-05-18T15:51:40.579Z,3.30
2023-05-18T15:54:07.908Z,2.80
2023-05-18T15:56:35.232Z,3.63
2023-05-18T15:59:02.650Z,3.83
2023-05-18T16:01:30.331Z,3.40
2023-05-18T16:03:57.856Z,5.88
2023-05-18T16:06:25.248Z,3.58
2023-05-18T16:08:52.990Z,3.10
2023-05-18T16:11:21.784Z,3.10
2023-05-18T16:13:57.020Z,3.88
2023-05-18T16:16:25.605Z,4.80
2023-05-18T16:18:53.559Z,3.85
2023-05-18T16:21:21.053Z,6.82
2023-05-18T16:23:49.722Z,4.07
2023-05-18T16:26:17.274Z,3.03
2023-05-18T16:28:44.687Z,4.13
2023-05-18T16:31:12.488Z,4.05
2023-05-18T16:33:40.815Z,3.53
2023-05-18T16:36:08.790Z,3.70
2023-05-18T16:38:38.371Z,5.65
2023-05-18T16:41:06.507Z,3.90
2023-05-18T16:43:36.091Z,5.25
2023-05-18T16:46:03.890Z,2.97
2023-05-18T16:48:31.882Z,4.70
2023-05-18T16:50:59.620Z,4.03
2023-05-18T16:53:27.347Z,5.60
2023-05-18T16:55:55.270Z,3.58
2023-05-18T16:58:23.017Z,4.45
2023-05-18T17:00:50.998Z,4.53
2023-05-18T17:03:19.036Z,4.32
2023-05-18T17:05:47.102Z,5.30
2023-05-18T17:08:15.873Z,4.47
2023-05-18T17:10:43.919Z,4.30
2023-05-18T17:13:12.278Z,7.25
2023-05-18T17:15:40.394Z,4.93
2023-05-18T17:18:08.679Z,7.10
2023-05-18T17:20:37.171Z,5.57
2023-05-18T17:23:05.647Z,7.13
2023-05-18T17:25:33.721Z,5.97
2023-05-18T17:28:02.961Z,4.80
2023-05-18T17:30:31.199Z,22.02
2023-05-18T17:32:59.640Z,9.90
2023-05-18T17:35:27.674Z,6.65
2023-05-18T17:37:56.605Z,7.80
2023-05-18T17:40:25.308Z,6.28
2023-05-18T17:42:53.639Z,7.20
2023-05-18T17:45:21.747Z,5.78
2023-05-18T17:47:49.913Z,6.60
2023-05-18T17:50:18.438Z,5.88
2023-05-18T17:52:47.236Z,6.20
2023-05-18T17:55:15.912Z,9.45
2023-05-18T17:57:47.399Z,11.20
2023-05-18T18:02:44.755Z,6.03
2023-05-18T18:05:15.203Z,5.60
2023-05-18T18:07:43.437Z,8.15
2023-05-18T18:10:12.155Z,7.38
2023-05-18T18:12:40.550Z,8.18
2023-05-18T18:15:09.497Z,6.25
2023-05-18T18:17:38.178Z,6.13
2023-05-18T18:20:08.406Z,8.20
2023-05-18T18:22:36.789Z,11.32
2023-05-18T18:25:05.499Z,8.65
2023-05-18T18:27:34.041Z,8.35
2023-05-18T18:30:02.977Z,13.15
2023-05-18T18:32:31.114Z,9.88
2023-05-18T18:34:59.725Z,7.53
2023-05-18T18:37:29.160Z,8.48
2023-05-18T18:39:57.885Z,8.63
2023-05-18T18:42:26.243Z,11.00
2023-05-18T18:44:57.941Z,9.48
2023-05-18T18:49:54.737Z,9.20
2023-05-18T18:52:22.811Z,8.73
2023-05-18T18:54:51.210Z,8.27
2023-05-18T18:57:22.713Z,8.57
2023-05-18T18:59:51.652Z,8.07
2023-05-18T19:02:20.331Z,7.43
2023-05-18T19:04:49.118Z,9.20
2023-05-18T19:07:17.272Z,7.78
2023-05-18T19:09:45.478Z,6.50
2023-05-18T19:12:14.894Z,11.25
2023-05-18T19:14:43.208Z,7.80
2023-05-18T19:17:11.829Z,8.98
2023-05-18T19:19:40.135Z,7.78
2023-05-18T19:22:08.529Z,6.55
2023-05-18T19:24:36.777Z,8.90
2023-05-18T19:27:04.976Z,9.05
2023-05-18T19:29:35.797Z,8.15
2023-05-18T19:32:07.200Z,13.63
2023-05-18T19:37:03.802Z,7.60
2023-05-18T19:39:32.031Z,5.45
2023-05-18T19:42:00.285Z,5.97
2023-05-18T19:44:28.469Z,6.03
2023-05-18T19:46:57.031Z,8.23
2023-05-18T19:49:25.218Z,7.95
2023-05-18T19:51:53.343Z,8.93
2023-05-18T19:54:21.595Z,5.85
2023-05-18T19:56:49.782Z,8.40
2023-05-18T19:59:18.130Z,8.05
2023-05-18T20:01:47.188Z,7.45
2023-05-18T20:04:17.566Z,6.45
2023-05-18T20:06:45.672Z,5.65
2023-05-18T20:09:13.920Z,8.93
2023-05-18T20:11:42.471Z,6.80
2023-05-18T20:14:10.482Z,6.82
2023-05-18T20:16:41.411Z,6.95
2023-05-18T20:19:10.806Z,9.40
2023-05-18T20:21:39.168Z,7.65
2023-05-18T20:24:07.474Z,6.38
2023-05-18T20:26:35.832Z,5.65
2023-05-18T20:29:04.061Z,5.90
2023-05-18T20:31:32.335Z,6.15
2023-05-18T20:34:00.552Z,5.00
2023-05-18T20:36:30.530Z,8.23
2023-05-18T20:38:59.614Z,5.10
2023-05-18T20:41:28.962Z,8.63
2023-05-18T20:43:57.832Z,7.78
2023-05-18T20:46:28.371Z,7.88
2023-05-18T20:48:56.602Z,8.05
2023-05-18T20:51:25.371Z,7.13
2023-05-18T20:53:53.647Z,6.53
2023-05-18T20:56:22.562Z,6.63
2023-05-18T20:58:50.807Z,5.60
2023-05-18T21:01:18.856Z,10.35
2023-05-18T21:03:46.445Z,9.02
2023-05-18T21:06:14.506Z,6.47
2023-05-18T21:08:42.554Z,11.23
2023-05-18T21:11:10.486Z,7.85
2023-05-18T21:13:37.971Z,7.97
2023-05-18T21:16:06.825Z,12.15
2023-05-18T21:18:35.324Z,6.95
2023-05-18T21:21:03.083Z,6.85
2023-05-18T21:23:30.591Z,5.85
2023-05-18T21:25:58.435Z,10.00
2023-05-18T21:28:25.759Z,8.57
2023-05-18T21:30:56.803Z,6.68
2023-05-18T21:33:24.515Z,8.02
2023-05-18T21:35:51.913Z,9.25
2023-05-18T21:38:19.281Z,9.30
2023-05-18T21:40:47.134Z,8.10
2023-05-18T21:43:14.898Z,12.40
2023-05-18T21:45:42.648Z,7.60
2023-05-18T21:48:10.292Z,9.68
2023-05-18T21:50:37.642Z,7.55
2023-05-18T21:53:04.916Z,7.28
2023-05-18T21:55:33.252Z,5.93
2023-05-18T21:58:00.965Z,7.82
2023-05-18T22:00:28.717Z,7.03
2023-05-18T22:02:56.756Z,6.10
2023-05-18T22:05:24.163Z,8.30
2023-05-18T22:07:52.442Z,9.55
2023-05-18T22:10:19.886Z,7.68
2023-05-18T22:12:47.229Z,9.82
2023-05-18T22:15:17.240Z,7.60
2023-05-18T22:17:46.260Z,6.50
2023-05-18T22:20:13.707Z,8.30
2023-05-18T22:22:41.305Z,7.90
2023-05-18T22:25:09.184Z,9.55
2023-05-18T22:27:39.225Z,7.38
2023-05-18T22:30:07.736Z,8.05
2023-05-18T22:32:35.262Z,6.25
2023-05-18T22:35:03.865Z,7.38
2023-05-18T22:37:31.464Z,9.40
2023-05-18T22:39:58.956Z,6.68
2023-05-18T22:42:26.289Z,7.75
2023-05-18T22:44:53.604Z,7.70
2023-05-18T22:47:23.807Z,8.60
2023-05-18T22:49:51.363Z,8.18
2023-05-18T22:52:19.064Z,9.77
2023-05-18T22:54:46.849Z,7.38
2023-05-18T22:57:14.235Z,9.25
2023-05-18T22:59:41.754Z,7.70
2023-05-18T23:02:08.996Z,10.07
2023-05-18T23:04:36.488Z,10.80
2023-05-18T23:07:04.351Z,7.88
2023-05-18T23:09:32.417Z,6.53
2023-05-18T23:12:01.507Z,7.85
2023-05-18T23:14:33.870Z,8.00
2023-05-18T23:17:01.635Z,7.90
2023-05-18T23:19:28.870Z,7.50
2023-05-18T23:21:56.704Z,9.40
2023-05-18T23:24:23.953Z,6.07
2023-05-18T23:26:51.319Z,8.95
2023-05-18T23:29:18.701Z,10.02
2023-05-18T23:31:46.371Z,7.07
2023-05-18T23:34:14.190Z,7.43
2023-05-18T23:36:43.053Z,8.05
2023-05-18T23:39:10.942Z,9.82
2023-05-18T23:41:39.274Z,6.78
2023-05-18T23:44:07.006Z,8.07
2023-05-18T23:46:35.208Z,12.27
2023-05-18T23:49:02.998Z,10.50
2023-05-18T23:51:35.975Z,7.78
2023-05-18T23:54:09.561Z,8.45
2023-05-18T23:56:37.250Z,10.20
2023-05-18T23:59:04.668Z,8.77
